LKKV

Karlovy Vary International Airport

Karlovy Vary, Czech Republic
METAR LKKV 231200Z 05011KT 9999 FEW028 M04/M10 Q1018
Observed Flight Rules
Feb-23 @ 12:00 UTC (17 minutes ago) Visual Flight Rules
Wind Visibility Clouds
50° at 11 knots 10,000+ meters
  • Few at 2,800' AGL
Temperatures Readings
Current -4°C / 25°F
Dewpoint -10°C / 14°F
Humidity 63%
Altimeter 30.06" Hg
Pressure 1018 hPa
Elevation 604
METAR LKKV 231200Z 05011KT 9999 FEW028 M04/M10 Q1018
Observed Flight Rules
Feb-23 @ 12:00 UTC
(17 minutes ago)
VFR
Wind Visibility
50° at 11 knots 10,000+ meters
Clouds
  • Few at 2,800' AGL
Temperature Dewpoint
-4°C / 25°F -10°C / 14°F
Humidity Altimeter Pressure
63% 30.06" Hg 1018 hPa